Sir Seretse Khama International Airport

FBSK · Kweneng, Botswana

METAR history FBSK · Sir Seretse Khama International Airport

Below you see METARs of the last few days. Select a year to browse through older METARs, from the year 2007 onwards.

April 15, 2024

Time Code Weather Temp. Visibility Ceiling Wind METAR/SPECI
23:00
V
16 °C 10 km+ - 150° 150° 5 kt METAR FBSK 152100Z 15005KT CAVOK 16/13 Q1023 NOSIG
22:00
V
17 °C 10 km+ - 070° 070° 4 kt METAR FBSK 152000Z 07004KT CAVOK 17/14 Q1023 NOSIG
21:00
V
17 °C 10 km+ - 110° 110° 5 kt METAR FBSK 151900Z 11005KT CAVOK 17/14 Q1023 NOSIG
20:00
V
19 °C 10 km+ - 090° 090° 5 kt METAR FBSK 151800Z 09005KT CAVOK 19/15 Q1023 NOSIG
19:00
V
18 °C 10 km+ - 060° 060° 5 kt METAR FBSK 151700Z 06005KT CAVOK 18/14 Q1022 NOSIG
18:00
V
20 °C 10 km+ - 070° 070° 4 kt METAR FBSK 151600Z 07004KT CAVOK 20/14 Q1022 NOSIG
17:00
V
22 °C 10 km+ - 040° 040° 6 kt METAR FBSK 151500Z 04006KT CAVOK 22/13 Q1021 NOSIG
16:00
V
21 °C 10 km+ - 040° 040° 8 kt METAR FBSK 151400Z 04008KT 360V080 CAVOK 21/13 Q1022 NOSIG
15:00
V
22 °C 10 km+ - 030° 030° 9 kt METAR FBSK 151300Z 03009KT 350V070 9999 FEW025 22/14 Q1022 NOSIG
14:00
V
20 °C 10 km+ - 020° 020° 8 kt METAR FBSK 151200Z 02008KT 350V050 9999 FEW021 20/14 Q1023 NOSIG
13:00
M
19 °C 10 km+ 1,700 ft 030° 030° 9 kt METAR FBSK 151100Z 03009KT 010V070 9999 BKN017 19/15 Q1024 NOSIG
12:00
V
17 °C 10 km+ 7,000 ft 060° 060° 7 kt METAR FBSK 151000Z 06007KT 030V090 9999 SCT014 SCT019 BKN070 17/15 Q1025 NOSIG
11:00
M
16 °C 7 km 7,000 ft 040° 040° 9 kt METAR FBSK 150900Z 04009KT 7000 -RA FEW020 OVC070 16/15 Q1026 NOSIG
10:00
V
17 °C 10 km+ 7,000 ft 270° 270° 3 kt METAR FBSK 150800Z 27003KT 9999 -RA FEW025 BKN070 17/15 Q1028 NOSIG
09:00
V
16 °C 8 km 7,000 ft 240° 240° 3 kt METAR FBSK 150700Z 24003KT 220V290 8000 -RA OVC070 16/15 Q1028 NOSIG
08:00
V
17 °C 8 km 7,000 ft 250° 250° 4 kt METAR FBSK 150600Z 25004KT 8000 -RA OVC070 17/15 Q1027 TEMPO 6000
07:00
V
17 °C 10 km+ - 130° 130° 4 kt METAR FBSK 150500Z 13004KT 030V190 CAVOK 17/13 Q1025 NOSIG
06:00
V
16 °C 10 km+ - 050° 050° 12 kt METAR FBSK 150400Z 05012KT CAVOK 16/14 Q1023 NOSIG
05:00
V
16 °C 10 km+ 6,500 ft 050° 050° 8 kt METAR FBSK 150300Z 05008KT 9999 FEW030CB OVC065 16/15 Q1023 NOSIG
02:00
V
17 °C 10 km+ 6,000 ft 240° 240° 9 kt METAR FBSK 150000Z 24009KT 9999 -TSRA FEW030CB OVC060 17/15 Q1025 TEMPO TSRA
00:00
V
19 °C 10 km+ - Var Var 2 kt METAR FBSK 142200Z VRB02KT CAVOK 19/11 Q1023 NOSIG

April 14, 2024

Time Code Weather Temp. Visibility Ceiling Wind METAR/SPECI
23:00
V
19 °C 10 km+ - 040° 040° 3 kt METAR FBSK 142100Z 04003KT CAVOK 19/11 Q1022 NOSIG
22:00
V
20 °C 10 km+ - 050° 050° 6 kt METAR FBSK 142000Z 05006KT CAVOK 20/11 Q1022 NOSIG
21:00
V
19 °C 10 km+ - 060° 060° 7 kt METAR FBSK 141900Z 06007KT CAVOK 19/12 Q1021 NOSIG
20:00
V
22 °C 10 km+ - 070° 070° 7 kt METAR FBSK 141800Z 07007KT CAVOK 22/12 Q1021 NOSIG
19:00
V
22 °C 10 km+ - 090° 090° 4 kt METAR FBSK 141700Z 09004KT CAVOK 22/12 Q1021 NOSIG
18:00
V
24 °C 10 km+ - 070° 070° 9 kt METAR FBSK 141600Z 07009KT CAVOK 24/11 Q1020 NOSIG
17:00
V
25 °C 10 km+ - 050° 050° 7 kt METAR FBSK 141500Z 05007KT CAVOK 25/11 Q1020 NOSIG
16:00
V
26 °C 10 km+ - 070° 070° 9 kt METAR FBSK 141400Z 07009KT 010V110 CAVOK 26/11 Q1021 NOSIG
15:00
V
25 °C 10 km+ - 030° 030° 6 kt METAR FBSK 141300Z 03006KT 350V100 9999 FEW030 25/11 Q1021 NOSIG
14:00
V
25 °C 10 km+ - Var Var 6 kt METAR FBSK 141200Z VRB06KT 9999 FEW030 25/10 Q1022 NOSIG
13:00
V
24 °C 10 km+ - 050° 050° 6 kt METAR FBSK 141100Z 05006KT 330V110 9999 FEW030 24/11 Q1023 NOSIG
12:00
V
24 °C 10 km+ - 020° 020° 8 kt METAR FBSK 141000Z 02008KT 320V060 9999 FEW030 24/12 Q1024 NOSIG
11:00
V
22 °C 10 km+ - 030° 030° 8 kt METAR FBSK 140900Z 03008KT 330V060 9999 FEW030 22/13 Q1024 NOSIG
10:00
V
20 °C 10 km+ - 040° 040° 8 kt METAR FBSK 140800Z 04008KT 360V070 CAVOK 20/13 Q1025 NOSIG
09:00
V
18 °C 10 km+ - 060° 060° 9 kt METAR FBSK 140700Z 06009KT 020V080 9999 FEW015 18/13 Q1024 NOSIG
08:00
V
15 °C 10 km+ - 070° 070° 9 kt METAR FBSK 140600Z 07009KT CAVOK 15/12 Q1024 NOSIG
07:00
V
12 °C 10 km+ - 110° 110° 5 kt METAR FBSK 140500Z 11005KT CAVOK 12/11 Q1023 NOSIG
06:00
V
12 °C 10 km+ - 110° 110° 4 kt METAR FBSK 140400Z 11004KT CAVOK 12/11 Q1022 NOSIG
05:00
V
12 °C 10 km+ - 130° 130° 6 kt METAR FBSK 140300Z 13006KT CAVOK 12/11 Q1022 NOSIG
04:00
V
13 °C 10 km+ - 140° 140° 6 kt METAR FBSK 140200Z 14006KT CAVOK 13/11 Q1021 NOSIG
03:00
V
13 °C 10 km+ - 110° 110° 6 kt METAR FBSK 140100Z 11006KT CAVOK 13/11 Q1021 NOSIG
00:00
V
15 °C 10 km+ - 070° 070° 5 kt METAR FBSK 132200Z 07005KT CAVOK 15/12 Q1022 NOSIG

April 13, 2024

Time Code Weather Temp. Visibility Ceiling Wind METAR/SPECI
23:00
V
15 °C 10 km+ - Var Var 2 kt METAR FBSK 132100Z VRB02KT CAVOK 15/11 Q1021 NOSIG
22:00
V
17 °C 10 km+ - 110° 110° 4 kt METAR FBSK 132000Z 11004KT CAVOK 17/12 Q1021 NOSIG
21:00
V
19 °C 10 km+ - 090° 090° 7 kt METAR FBSK 131900Z 09007KT CAVOK 19/11 Q1022 NOSIG
20:00
V
19 °C 10 km+ - 100° 100° 6 kt METAR FBSK 131800Z 10006KT CAVOK 19/11 Q1022 NOSIG
19:00
V
21 °C 10 km+ - 090° 090° 5 kt METAR FBSK 131700Z 09005KT CAVOK 21/11 Q1021 NOSIG
18:00
V
23 °C 10 km+ - 070° 070° 8 kt METAR FBSK 131600Z 07008KT 9999 FEW030 23/11 Q1021 NOSIG
17:00
V
24 °C 10 km+ - 060° 060° 6 kt METAR FBSK 131500Z 06006KT 9999 FEW030 24/10 Q1021 NOSIG
15:00
V
24 °C 10 km+ - Var Var 8 kt METAR FBSK 131300Z VRB08KT 9999 FEW030 24/11 Q1021 NOSIG
14:00
V
23 °C 10 km+ - 030° 030° 7 kt METAR FBSK 131200Z 03007KT 360V090 9999 FEW030 23/12 Q1021 NOSIG
13:00
V
22 °C 10 km+ - 030° 030° 8 kt METAR FBSK 131100Z 03008KT 340V110 9999 SCT020 22/12 Q1022 NOSIG
12:00
M
21 °C 10 km+ 2,000 ft 060° 060° 9 kt METAR FBSK 131000Z 06009KT 010V090 9999 BKN020 21/13 Q1023 NOSIG
10:00
V
18 °C 10 km+ - 050° 050° 9 kt METAR FBSK 130800Z 05009KT 010V080 9999 SCT015 18/13 Q1024 NOSIG
09:00
V
16 °C 10 km+ - 060° 060° 8 kt METAR FBSK 130700Z 06008KT 020V090 9999 SCT015 16/13 Q1024 NOSIG
08:00
V
14 °C 10 km+ - 090° 090° 6 kt METAR FBSK 130600Z 09006KT 050V130 9999 FEW015 14/12 Q1023 NOSIG
Report a change